Tropical Cyclones
[Index]
Main Index Home Page Stock Weather Photos Extreme Storms Discussion Storm News and Storm Chasing Reports Tropical Cyclones / Hurricanes / Typhoons Weather Data and Links Wild Fires / Bushfires Weather Observation Techniques Weather Picture Catalogue Tornado Pictures and Reports Stock Video Footage and DVDs for sale
Season 2012-2013 Tropical Cyclone DUMILE Track Map
Season 2012-2013 Summaries: [BoM-AU] [JTWC-AU] [JTWC-SIO] [JTWC-SPAC] [JTWC-SH]
<<- Previous TC | JTWC 2012-2013 Season | Next TC ->>

click for intensity scale information  Lat/long Grid: Show Hide

 Date Labels: Show Hide

Joint Typhoon Warning Centre Cyclone Data

Name: DUMILE

29 Dec 2012 12:00 UTC to 05 Jan 2013 12:00 UTC

    date/time    lat    long     hPa   cat  kts
2012-12-29 12   10.1    63.2    1007         20          
2012-12-29 18   10.0    62.2    1002         25          
2012-12-30 00   10.0    61.3    1004         25          
2012-12-30 06    9.9    60.6    1004         25          
2012-12-30 12   10.3    59.7    1007         20          
2012-12-30 18   10.4    58.8    1004         25          
2012-12-31 00   10.8    58.9    1000         30          
2012-12-31 06   11.4    58.4    1000         30          
2012-12-31 12   11.7    57.5    1000         30          
2012-12-31 18   11.4    56.6    1000         30          
2013-01-01 00   11.7    56.3     993    1    40          
2013-01-01 06   11.8    55.9     989    1    45          
2013-01-01 12   12.1    55.5     989    1    45          
2013-01-01 18   12.9    55.4     985    1    50          
2013-01-02 00   14.1    55.6     985    1    50          
2013-01-02 06   15.3    55.6     982    2    55          
2013-01-02 06   15.3    55.6     982    2    55          
2013-01-02 12   16.5    55.3     982    2    55          
2013-01-02 12   16.5    55.3     982    2    55          
2013-01-02 18   17.8    55.0     974    2    65          
2013-01-02 18   17.8    55.0     974    2    65          
2013-01-03 00   19.0    54.7     974    2    65          
2013-01-03 00   19.0    54.7     974    2    65          
2013-01-03 06   20.3    54.4     970    2    70          
2013-01-03 06   20.3    54.4     970    2    70          
2013-01-03 12   21.7    54.2     970    2    70          
2013-01-03 12   21.7    54.2     970    2    70          
2013-01-03 12   21.7    54.2     970    2    70          
2013-01-03 18   23.0    54.1     970    2    70          
2013-01-03 18   23.0    54.1     970    2    70          
2013-01-03 18   23.0    54.1     970    2    70          
2013-01-04 00   24.3    54.1     967    3    75          
2013-01-04 00   24.3    54.1     967    3    75          
2013-01-04 00   24.3    54.1     967    3    75          
2013-01-04 06   25.5    54.1     967    3    75          
2013-01-04 06   25.5    54.1     967    3    75          
2013-01-04 06   25.5    54.1     967    3    75          
2013-01-04 12   26.6    54.8     967    3    75          
2013-01-04 12   26.6    54.8     967    3    75          
2013-01-04 12   26.6    54.8     967    3    75          
2013-01-04 18   27.7    55.9     974    2    65          
2013-01-04 18   27.7    55.9     974    2    65          
2013-01-05 00   29.3    58.0     978    2    60          
2013-01-05 06   31.1    59.9     985    1    50          
2013-01-05 12   33.8    62.2     993    1    40          
Winds are 1-min average.

Tropical cyclone tracks developed by Michael Bath using data from the Joint Typhoon Warning Centre Best Tracks and Google Maps.


[Australian Severe Weather index] [Copyright Notice] [Email Contacts] [Search This Site] [Privacy Policy]
Document: tropical_cyclone_dumile.htm Updated: 28 June 2017